sensor_id;sensor_type;location;lat;lon;timestamp;pressure;altitude;pressure_sealevel;temperature;humidity
28312;BME280;15572;48.810;9.148;2023-04-27T00:00:05;98211.53;;;7.04;89.97
28312;BME280;15572;48.810;9.148;2023-04-27T00:05:05;98211.00;;;7.08;91.50
28312;BME280;15572;48.810;9.148;2023-04-27T00:10:02;98205.56;;;7.16;92.38
28312;BME280;15572;48.810;9.148;2023-04-27T00:15:00;98203.53;;;7.18;93.99
28312;BME280;15572;48.810;9.148;2023-04-27T00:19:56;98207.94;;;7.11;96.16
28312;BME280;15572;48.810;9.148;2023-04-27T00:24:52;98199.03;;;7.11;96.66
28312;BME280;15572;48.810;9.148;2023-04-27T00:29:49;98186.91;;;7.15;97.26
28312;BME280;15572;48.810;9.148;2023-04-27T00:34:47;98196.97;;;7.21;96.86
28312;BME280;15572;48.810;9.148;2023-04-27T00:39:43;98185.88;;;7.16;100.00
28312;BME280;15572;48.810;9.148;2023-04-27T00:44:40;98187.78;;;7.07;100.00
28312;BME280;15572;48.810;9.148;2023-04-27T00:49:37;98181.59;;;6.91;100.00
28312;BME280;15572;48.810;9.148;2023-04-27T00:54:34;98181.13;;;6.79;100.00
28312;BME280;15572;48.810;9.148;2023-04-27T00:59:31;98174.78;;;6.72;100.00
28312;BME280;15572;48.810;9.148;2023-04-27T01:04:28;98184.03;;;6.78;100.00
28312;BME280;15572;48.810;9.148;2023-04-27T01:09:26;98182.16;;;6.78;98.09
28312;BME280;15572;48.810;9.148;2023-04-27T01:14:24;98185.19;;;6.75;99.59
28312;BME280;15572;48.810;9.148;2023-04-27T01:19:20;98185.03;;;6.76;99.83
28312;BME280;15572;48.810;9.148;2023-04-27T01:24:19;98188.38;;;6.78;100.00
28312;BME280;15572;48.810;9.148;2023-04-27T01:29:15;98185.34;;;6.73;100.00
28312;BME280;15572;48.810;9.148;2023-04-27T01:34:12;98187.91;;;6.59;100.00
28312;BME280;15572;48.810;9.148;2023-04-27T01:39:08;98178.84;;;6.52;100.00
28312;BME280;15572;48.810;9.148;2023-04-27T01:44:06;98182.06;;;6.47;100.00
28312;BME280;15572;48.810;9.148;2023-04-27T01:49:03;98185.78;;;6.38;100.00
28312;BME280;15572;48.810;9.148;2023-04-27T01:54:00;98187.31;;;6.41;100.00
28312;BME280;15572;48.810;9.148;2023-04-27T01:58:56;98191.16;;;6.38;100.00
28312;BME280;15572;48.810;9.148;2023-04-27T02:03:54;98193.16;;;6.36;100.00
28312;BME280;15572;48.810;9.148;2023-04-27T02:08:50;98195.19;;;6.34;100.00
28312;BME280;15572;48.810;9.148;2023-04-27T02:13:47;98200.25;;;6.29;100.00
28312;BME280;15572;48.810;9.148;2023-04-27T02:18:44;98205.94;;;6.26;100.00
28312;BME280;15572;48.810;9.148;2023-04-27T02:23:42;98203.28;;;6.34;100.00
28312;BME280;15572;48.810;9.148;2023-04-27T02:28:38;98205.78;;;6.36;100.00
28312;BME280;15572;48.810;9.148;2023-04-27T02:33:35;98213.19;;;6.33;100.00
28312;BME280;15572;48.810;9.148;2023-04-27T02:38:31;98204.09;;;6.26;100.00
28312;BME280;15572;48.810;9.148;2023-04-27T02:43:29;98215.69;;;6.27;100.00
28312;BME280;15572;48.810;9.148;2023-04-27T02:48:26;98212.34;;;6.17;100.00
28312;BME280;15572;48.810;9.148;2023-04-27T02:53:22;98213.00;;;6.27;100.00
28312;BME280;15572;48.810;9.148;2023-04-27T02:58:19;98217.56;;;6.34;100.00
28312;BME280;15572;48.810;9.148;2023-04-27T03:03:16;98230.31;;;6.41;100.00
28312;BME280;15572;48.810;9.148;2023-04-27T03:08:13;98225.44;;;6.44;100.00
28312;BME280;15572;48.810;9.148;2023-04-27T03:13:09;98218.22;;;6.37;100.00
28312;BME280;15572;48.810;9.148;2023-04-27T03:18:06;98218.22;;;6.37;100.00
28312;BME280;15572;48.810;9.148;2023-04-27T03:23:04;98213.69;;;6.45;100.00
28312;BME280;15572;48.810;9.148;2023-04-27T03:28:01;98222.41;;;6.55;100.00
28312;BME280;15572;48.810;9.148;2023-04-27T03:32:57;98212.81;;;6.61;100.00
28312;BME280;15572;48.810;9.148;2023-04-27T03:37:54;98220.19;;;6.67;100.00
28312;BME280;15572;48.810;9.148;2023-04-27T03:42:51;98224.53;;;6.68;100.00
28312;BME280;15572;48.810;9.148;2023-04-27T03:47:48;98220.00;;;6.68;100.00
28312;BME280;15572;48.810;9.148;2023-04-27T03:52:44;98229.75;;;6.69;100.00
28312;BME280;15572;48.810;9.148;2023-04-27T03:57:41;98222.72;;;6.60;100.00
28312;BME280;15572;48.810;9.148;2023-04-27T04:02:39;98227.78;;;6.47;100.00
28312;BME280;15572;48.810;9.148;2023-04-27T04:07:36;98227.44;;;6.42;100.00
28312;BME280;15572;48.810;9.148;2023-04-27T04:12:32;98224.94;;;6.41;100.00
28312;BME280;15572;48.810;9.148;2023-04-27T04:17:29;98222.59;;;6.38;100.00
28312;BME280;15572;48.810;9.148;2023-04-27T04:22:29;98218.38;;;6.43;100.00
28312;BME280;15572;48.810;9.148;2023-04-27T04:27:25;98234.84;;;6.48;100.00
28312;BME280;15572;48.810;9.148;2023-04-27T04:32:22;98235.69;;;6.57;100.00
28312;BME280;15572;48.810;9.148;2023-04-27T04:37:18;98236.50;;;6.65;100.00
28312;BME280;15572;48.810;9.148;2023-04-27T04:42:16;98235.47;;;6.74;100.00
28312;BME280;15572;48.810;9.148;2023-04-27T04:47:12;98240.16;;;6.81;100.00
28312;BME280;15572;48.810;9.148;2023-04-27T04:52:09;98235.28;;;6.84;100.00
28312;BME280;15572;48.810;9.148;2023-04-27T04:57:05;98240.34;;;6.87;100.00
28312;BME280;15572;48.810;9.148;2023-04-27T05:02:03;98241.66;;;6.99;100.00
28312;BME280;15572;48.810;9.148;2023-04-27T05:07:00;98248.69;;;7.08;100.00
28312;BME280;15572;48.810;9.148;2023-04-27T05:11:57;98238.91;;;7.15;100.00
28312;BME280;15572;48.810;9.148;2023-04-27T05:16:54;98236.66;;;7.27;100.00
28312;BME280;15572;48.810;9.148;2023-04-27T05:21:52;98239.81;;;7.39;100.00
28312;BME280;15572;48.810;9.148;2023-04-27T05:26:49;98244.63;;;7.51;100.00
28312;BME280;15572;48.810;9.148;2023-04-27T05:31:45;98243.88;;;7.66;100.00
28312;BME280;15572;48.810;9.148;2023-04-27T05:36:42;98249.53;;;7.79;100.00
28312;BME280;15572;48.810;9.148;2023-04-27T05:41:39;98260.75;;;7.90;100.00
28312;BME280;15572;48.810;9.148;2023-04-27T05:46:36;98256.06;;;8.07;100.00
28312;BME280;15572;48.810;9.148;2023-04-27T05:51:32;98251.78;;;8.21;100.00
28312;BME280;15572;48.810;9.148;2023-04-27T05:56:29;98258.94;;;8.36;100.00
28312;BME280;15572;48.810;9.148;2023-04-27T06:01:27;98270.25;;;8.55;100.00
28312;BME280;15572;48.810;9.148;2023-04-27T06:06:23;98280.53;;;8.74;100.00
28312;BME280;15572;48.810;9.148;2023-04-27T06:11:20;98276.66;;;8.91;100.00
28312;BME280;15572;48.810;9.148;2023-04-27T06:16:18;98269.25;;;9.08;100.00
28312;BME280;15572;48.810;9.148;2023-04-27T06:21:16;98273.41;;;9.25;100.00
28312;BME280;15572;48.810;9.148;2023-04-27T06:26:13;98282.84;;;9.44;100.00
28312;BME280;15572;48.810;9.148;2023-04-27T06:31:09;98285.34;;;9.60;100.00
28312;BME280;15572;48.810;9.148;2023-04-27T06:36:06;98293.25;;;9.76;100.00
28312;BME280;15572;48.810;9.148;2023-04-27T06:41:04;98280.09;;;9.88;100.00
28312;BME280;15572;48.810;9.148;2023-04-27T06:46:01;98289.16;;;10.01;99.13
28312;BME280;15572;48.810;9.148;2023-04-27T06:50:58;98294.19;;;10.04;98.62
28312;BME280;15572;48.810;9.148;2023-04-27T06:55:54;98295.66;;;10.22;97.50
28312;BME280;15572;48.810;9.148;2023-04-27T07:00:52;98294.84;;;10.42;95.58
28312;BME280;15572;48.810;9.148;2023-04-27T07:05:49;98300.00;;;10.59;94.52
28312;BME280;15572;48.810;9.148;2023-04-27T07:10:46;98302.44;;;10.75;93.28
28312;BME280;15572;48.810;9.148;2023-04-27T07:15:42;98301.53;;;10.89;89.78
28312;BME280;15572;48.810;9.148;2023-04-27T07:20:41;98297.03;;;10.75;89.88
28312;BME280;15572;48.810;9.148;2023-04-27T07:25:37;98292.53;;;10.61;91.48
28312;BME280;15572;48.810;9.148;2023-04-27T07:30:34;98295.63;;;10.58;91.42
28312;BME280;15572;48.810;9.148;2023-04-27T07:35:31;98298.84;;;10.68;91.46
28312;BME280;15572;48.810;9.148;2023-04-27T07:40:29;98279.56;;;10.77;90.59
28312;BME280;15572;48.810;9.148;2023-04-27T07:45:26;98285.59;;;10.79;90.44
28312;BME280;15572;48.810;9.148;2023-04-27T07:50:27;98276.09;;;10.90;89.38
28312;BME280;15572;48.810;9.148;2023-04-27T07:55:24;98289.31;;;11.00;88.21
28312;BME280;15572;48.810;9.148;2023-04-27T08:00:23;98279.34;;;11.07;87.69
28312;BME280;15572;48.810;9.148;2023-04-27T08:05:20;98288.78;;;11.11;83.93
28312;BME280;15572;48.810;9.148;2023-04-27T08:10:17;98288.03;;;11.23;81.93
28312;BME280;15572;48.810;9.148;2023-04-27T08:15:13;98283.91;;;11.34;78.89
28312;BME280;15572;48.810;9.148;2023-04-27T08:20:11;98278.59;;;11.47;80.00
28312;BME280;15572;48.810;9.148;2023-04-27T08:25:08;98276.16;;;11.59;74.97
28312;BME280;15572;48.810;9.148;2023-04-27T08:30:06;98269.09;;;11.64;72.93
28312;BME280;15572;48.810;9.148;2023-04-27T08:35:03;98263.16;;;11.89;72.88
28312;BME280;15572;48.810;9.148;2023-04-27T08:40:03;98261.31;;;12.02;72.45
28312;BME280;15572;48.810;9.148;2023-04-27T08:45:00;98256.75;;;12.09;71.14
28312;BME280;15572;48.810;9.148;2023-04-27T08:49:56;98254.53;;;12.33;66.58
28312;BME280;15572;48.810;9.148;2023-04-27T08:54:53;98248.06;;;12.66;63.69
28312;BME280;15572;48.810;9.148;2023-04-27T08:59:57;98248.28;;;12.98;63.90
28312;BME280;15572;48.810;9.148;2023-04-27T09:04:55;98251.41;;;13.21;64.11
28312;BME280;15572;48.810;9.148;2023-04-27T09:10:01;98250.75;;;13.45;63.63
28312;BME280;15572;48.810;9.148;2023-04-27T09:15:01;98252.75;;;13.70;62.90
28312;BME280;15572;48.810;9.148;2023-04-27T09:20:04;98258.94;;;13.90;62.93
28312;BME280;15572;48.810;9.148;2023-04-27T09:25:07;98264.53;;;14.02;60.31
28312;BME280;15572;48.810;9.148;2023-04-27T09:30:13;98250.59;;;14.23;60.38
28312;BME280;15572;48.810;9.148;2023-04-27T09:35:20;98260.47;;;14.17;54.81
28312;BME280;15572;48.810;9.148;2023-04-27T09:40:17;98265.28;;;13.77;54.93
28312;BME280;15572;48.810;9.148;2023-04-27T09:45:16;98254.94;;;13.99;56.57
28312;BME280;15572;48.810;9.148;2023-04-27T09:50:13;98255.16;;;14.36;56.59
28312;BME280;15572;48.810;9.148;2023-04-27T09:55:14;98255.34;;;14.03;54.15
28312;BME280;15572;48.810;9.148;2023-04-27T10:00:24;98246.44;;;14.20;53.49
28312;BME280;15572;48.810;9.148;2023-04-27T10:05:35;98247.41;;;14.32;52.64
28312;BME280;15572;48.810;9.148;2023-04-27T10:10:46;98251.41;;;14.37;52.86
28312;BME280;15572;48.810;9.148;2023-04-27T10:15:44;98256.50;;;14.58;52.35
28312;BME280;15572;48.810;9.148;2023-04-27T10:20:40;98243.09;;;14.81;52.92
28312;BME280;15572;48.810;9.148;2023-04-27T10:25:39;98245.75;;;15.12;51.08
28312;BME280;15572;48.810;9.148;2023-04-27T10:30:37;98251.38;;;15.17;49.17
28312;BME280;15572;48.810;9.148;2023-04-27T10:35:36;98252.47;;;15.35;49.18
28312;BME280;15572;48.810;9.148;2023-04-27T10:40:34;98233.44;;;15.53;49.25
28312;BME280;15572;48.810;9.148;2023-04-27T10:45:33;98224.06;;;15.97;49.06
28312;BME280;15572;48.810;9.148;2023-04-27T10:50:29;98222.94;;;16.76;49.10
28312;BME280;15572;48.810;9.148;2023-04-27T10:55:28;98226.75;;;17.56;47.01
28312;BME280;15572;48.810;9.148;2023-04-27T11:00:26;98233.03;;;17.80;46.92
28312;BME280;15572;48.810;9.148;2023-04-27T11:05:25;98229.38;;;17.40;47.52
28312;BME280;15572;48.810;9.148;2023-04-27T11:10:24;98230.69;;;17.37;44.80
28312;BME280;15572;48.810;9.148;2023-04-27T11:15:22;98216.53;;;18.03;43.37
28312;BME280;15572;48.810;9.148;2023-04-27T11:20:23;98218.88;;;18.40;43.17
28312;BME280;15572;48.810;9.148;2023-04-27T11:25:26;98218.16;;;19.61;41.26
28312;BME280;15572;48.810;9.148;2023-04-27T11:30:24;98205.31;;;19.89;38.48
28312;BME280;15572;48.810;9.148;2023-04-27T11:35:31;98185.53;;;20.62;38.48
28312;BME280;15572;48.810;9.148;2023-04-27T11:40:28;98213.81;;;18.77;38.28
28312;BME280;15572;48.810;9.148;2023-04-27T11:45:26;98217.09;;;17.77;39.18
28312;BME280;15572;48.810;9.148;2023-04-27T11:50:23;98210.56;;;18.35;39.62
28312;BME280;15572;48.810;9.148;2023-04-27T11:55:22;98207.56;;;18.98;38.60
28312;BME280;15572;48.810;9.148;2023-04-27T12:00:19;98204.72;;;19.26;39.25
28312;BME280;15572;48.810;9.148;2023-04-27T12:05:17;98203.97;;;19.48;39.75
28312;BME280;15572;48.810;9.148;2023-04-27T12:10:14;98186.59;;;20.56;37.73
28312;BME280;15572;48.810;9.148;2023-04-27T12:15:10;98182.28;;;21.34;37.10
28312;BME280;15572;48.810;9.148;2023-04-27T12:20:08;98189.03;;;20.84;36.45
28312;BME280;15572;48.810;9.148;2023-04-27T12:25:06;98180.06;;;20.94;35.62
28312;BME280;15572;48.810;9.148;2023-04-27T12:30:05;98184.19;;;20.65;36.23
28312;BME280;15572;48.810;9.148;2023-04-27T12:35:02;98175.94;;;21.33;36.14
28312;BME280;15572;48.810;9.148;2023-04-27T12:39:58;98180.56;;;22.52;34.50
28312;BME280;15572;48.810;9.148;2023-04-27T12:44:57;98181.09;;;22.54;34.33
28312;BME280;15572;48.810;9.148;2023-04-27T12:49:53;98175.03;;;22.52;34.82
28312;BME280;15572;48.810;9.148;2023-04-27T12:54:50;98167.69;;;21.33;33.46
28312;BME280;15572;48.810;9.148;2023-04-27T12:59:51;98163.91;;;20.17;35.44
28312;BME280;15572;48.810;9.148;2023-04-27T13:04:49;98158.28;;;20.07;37.15
28312;BME280;15572;48.810;9.148;2023-04-27T13:09:46;98162.34;;;20.53;37.50
28312;BME280;15572;48.810;9.148;2023-04-27T13:14:42;98149.97;;;20.82;36.18
28312;BME280;15572;48.810;9.148;2023-04-27T13:19:40;98155.88;;;21.01;36.72
28312;BME280;15572;48.810;9.148;2023-04-27T13:24:38;98151.25;;;21.12;37.08
28312;BME280;15572;48.810;9.148;2023-04-27T13:29:36;98155.63;;;21.02;37.53
28312;BME280;15572;48.810;9.148;2023-04-27T13:34:32;98138.97;;;20.82;36.67
28312;BME280;15572;48.810;9.148;2023-04-27T13:39:30;98141.56;;;20.08;38.09
28312;BME280;15572;48.810;9.148;2023-04-27T13:44:28;98136.47;;;19.95;36.45
28312;BME280;15572;48.810;9.148;2023-04-27T13:49:25;98134.03;;;20.26;38.00
28312;BME280;15572;48.810;9.148;2023-04-27T13:54:22;98124.91;;;20.20;37.93
28312;BME280;15572;48.810;9.148;2023-04-27T13:59:18;98132.59;;;20.45;37.69
28312;BME280;15572;48.810;9.148;2023-04-27T14:04:17;98128.06;;;19.80;37.46
28312;BME280;15572;48.810;9.148;2023-04-27T14:09:14;98127.84;;;19.43;39.49
28312;BME280;15572;48.810;9.148;2023-04-27T14:14:10;98129.38;;;19.56;39.17
28312;BME280;15572;48.810;9.148;2023-04-27T14:19:07;98122.50;;;19.53;39.73
28312;BME280;15572;48.810;9.148;2023-04-27T14:24:06;98121.38;;;19.49;39.73
28312;BME280;15572;48.810;9.148;2023-04-27T14:29:02;98124.13;;;18.94;39.47
28312;BME280;15572;48.810;9.148;2023-04-27T14:33:59;98122.31;;;18.83;40.72
28312;BME280;15572;48.810;9.148;2023-04-27T14:38:55;98111.88;;;18.63;40.17
28312;BME280;15572;48.810;9.148;2023-04-27T14:43:53;98124.66;;;18.58;41.23
28312;BME280;15572;48.810;9.148;2023-04-27T14:48:50;98133.34;;;18.21;40.72
28312;BME280;15572;48.810;9.148;2023-04-27T14:53:46;98129.53;;;17.94;40.90
28312;BME280;15572;48.810;9.148;2023-04-27T14:58:43;98132.06;;;18.12;42.22
28312;BME280;15572;48.810;9.148;2023-04-27T15:03:41;98137.22;;;18.25;41.43
28312;BME280;15572;48.810;9.148;2023-04-27T15:08:38;98122.47;;;18.26;42.47
28312;BME280;15572;48.810;9.148;2023-04-27T15:13:34;98126.81;;;18.56;42.02
28312;BME280;15572;48.810;9.148;2023-04-27T15:18:31;98125.81;;;18.62;41.16
28312;BME280;15572;48.810;9.148;2023-04-27T15:23:29;98128.44;;;19.07;41.70
28312;BME280;15572;48.810;9.148;2023-04-27T15:28:26;98117.13;;;19.85;39.66
28312;BME280;15572;48.810;9.148;2023-04-27T15:33:23;98112.50;;;19.25;40.12
28312;BME280;15572;48.810;9.148;2023-04-27T15:38:20;98112.00;;;18.40;40.56
28312;BME280;15572;48.810;9.148;2023-04-27T15:43:18;98114.19;;;18.55;40.63
28312;BME280;15572;48.810;9.148;2023-04-27T15:48:15;98111.03;;;18.79;41.38
28312;BME280;15572;48.810;9.148;2023-04-27T15:53:12;98107.91;;;18.09;41.61
28312;BME280;15572;48.810;9.148;2023-04-27T15:58:09;98100.16;;;17.89;41.51
28312;BME280;15572;48.810;9.148;2023-04-27T16:03:06;98090.88;;;18.07;41.55
28312;BME280;15572;48.810;9.148;2023-04-27T16:08:04;98078.63;;;18.26;41.96
28312;BME280;15572;48.810;9.148;2023-04-27T16:13:01;98083.28;;;18.42;41.74
28312;BME280;15572;48.810;9.148;2023-04-27T16:17:57;98078.63;;;18.76;41.72
28312;BME280;15572;48.810;9.148;2023-04-27T16:22:55;98071.38;;;18.87;41.80
28312;BME280;15572;48.810;9.148;2023-04-27T16:27:52;98064.59;;;18.73;42.32
28312;BME280;15572;48.810;9.148;2023-04-27T16:32:48;98064.25;;;18.52;42.71
28312;BME280;15572;48.810;9.148;2023-04-27T16:37:45;98057.28;;;18.28;43.32
28312;BME280;15572;48.810;9.148;2023-04-27T16:42:45;98060.38;;;17.87;42.21
28312;BME280;15572;48.810;9.148;2023-04-27T16:47:43;98058.06;;;17.95;43.62
28312;BME280;15572;48.810;9.148;2023-04-27T16:52:40;98060.75;;;18.07;44.01
28312;BME280;15572;48.810;9.148;2023-04-27T16:57:37;98058.09;;;18.12;44.38
28312;BME280;15572;48.810;9.148;2023-04-27T17:02:34;98057.44;;;18.05;44.61
28312;BME280;15572;48.810;9.148;2023-04-27T17:07:31;98061.34;;;18.09;44.94
28312;BME280;15572;48.810;9.148;2023-04-27T17:12:28;98059.78;;;18.30;44.32
28312;BME280;15572;48.810;9.148;2023-04-27T17:17:24;98052.94;;;18.32;44.14
28312;BME280;15572;48.810;9.148;2023-04-27T17:22:22;98057.31;;;17.83;45.24
28312;BME280;15572;48.810;9.148;2023-04-27T17:27:19;98068.84;;;17.17;46.54
28312;BME280;15572;48.810;9.148;2023-04-27T17:32:15;98071.16;;;16.85;47.49
28312;BME280;15572;48.810;9.148;2023-04-27T17:37:12;98066.41;;;16.69;48.10
28312;BME280;15572;48.810;9.148;2023-04-27T17:42:10;98064.84;;;16.50;47.62
28312;BME280;15572;48.810;9.148;2023-04-27T17:47:07;98060.53;;;16.30;48.57
28312;BME280;15572;48.810;9.148;2023-04-27T17:52:04;98061.97;;;16.21;48.44
28312;BME280;15572;48.810;9.148;2023-04-27T17:57:00;98054.81;;;16.09;49.38
28312;BME280;15572;48.810;9.148;2023-04-27T18:01:58;98061.06;;;15.86;48.95
28312;BME280;15572;48.810;9.148;2023-04-27T18:06:55;98053.78;;;15.68;49.92
28312;BME280;15572;48.810;9.148;2023-04-27T18:11:51;98061.91;;;15.56;50.73
28312;BME280;15572;48.810;9.148;2023-04-27T18:16:47;98064.19;;;15.41;51.78
28312;BME280;15572;48.810;9.148;2023-04-27T18:21:45;98070.66;;;15.29;52.44
28312;BME280;15572;48.810;9.148;2023-04-27T18:26:42;98076.28;;;15.15;52.86
28312;BME280;15572;48.810;9.148;2023-04-27T18:31:38;98077.72;;;15.00;54.14
28312;BME280;15572;48.810;9.148;2023-04-27T18:36:35;98086.94;;;14.81;55.40
28312;BME280;15572;48.810;9.148;2023-04-27T18:41:32;98066.03;;;14.56;57.17
28312;BME280;15572;48.810;9.148;2023-04-27T18:46:29;98067.47;;;14.34;58.19
28312;BME280;15572;48.810;9.148;2023-04-27T18:51:26;98068.50;;;14.15;60.61
28312;BME280;15572;48.810;9.148;2023-04-27T18:56:23;98070.28;;;13.96;61.95
28312;BME280;15572;48.810;9.148;2023-04-27T19:01:22;98080.03;;;13.79;62.88
28312;BME280;15572;48.810;9.148;2023-04-27T19:06:19;98069.28;;;13.59;64.96
28312;BME280;15572;48.810;9.148;2023-04-27T19:11:23;98085.94;;;13.38;68.42
28312;BME280;15572;48.810;9.148;2023-04-27T19:16:22;98093.78;;;13.15;71.90
28312;BME280;15572;48.810;9.148;2023-04-27T19:21:18;98095.50;;;12.89;74.77
28312;BME280;15572;48.810;9.148;2023-04-27T19:26:15;98107.06;;;12.65;78.51
28312;BME280;15572;48.810;9.148;2023-04-27T19:31:11;98089.53;;;12.48;78.07
28312;BME280;15572;48.810;9.148;2023-04-27T19:36:09;98094.56;;;12.44;74.60
28312;BME280;15572;48.810;9.148;2023-04-27T19:41:06;98076.81;;;12.35;74.77
28312;BME280;15572;48.810;9.148;2023-04-27T19:46:02;98066.78;;;12.29;76.07
28312;BME280;15572;48.810;9.148;2023-04-27T19:50:59;98068.25;;;12.25;75.99
28312;BME280;15572;48.810;9.148;2023-04-27T19:55:57;98070.16;;;12.11;79.49
28312;BME280;15572;48.810;9.148;2023-04-27T20:00:53;98067.88;;;12.02;78.45
28312;BME280;15572;48.810;9.148;2023-04-27T20:11:36;98064.66;;;11.65;85.82
28312;BME280;15572;48.810;9.148;2023-04-27T20:16:57;98072.34;;;11.49;84.06
28312;BME280;15572;48.810;9.148;2023-04-27T20:22:00;98065.06;;;11.43;82.07
28312;BME280;15572;48.810;9.148;2023-04-27T20:27:04;98064.59;;;11.39;83.88
28312;BME280;15572;48.810;9.148;2023-04-27T20:37:00;98062.31;;;11.36;83.58
28312;BME280;15572;48.810;9.148;2023-04-27T20:41:58;98061.66;;;11.27;86.38
28312;BME280;15572;48.810;9.148;2023-04-27T20:46:56;98054.56;;;11.20;87.94
28312;BME280;15572;48.810;9.148;2023-04-27T20:51:53;98053.88;;;11.11;91.19
28312;BME280;15572;48.810;9.148;2023-04-27T20:56:49;98053.66;;;11.00;91.83
28312;BME280;15572;48.810;9.148;2023-04-27T21:01:46;98040.50;;;10.96;91.87
28312;BME280;15572;48.810;9.148;2023-04-27T21:06:44;98034.03;;;10.91;90.75
28312;BME280;15572;48.810;9.148;2023-04-27T21:11:40;98026.50;;;10.86;91.54
28312;BME280;15572;48.810;9.148;2023-04-27T21:16:37;98022.13;;;10.79;95.16
28312;BME280;15572;48.810;9.148;2023-04-27T21:21:33;98021.06;;;10.73;95.16
28312;BME280;15572;48.810;9.148;2023-04-27T21:26:31;98023.53;;;10.75;93.61
28312;BME280;15572;48.810;9.148;2023-04-27T21:31:27;98020.00;;;10.74;93.68
28312;BME280;15572;48.810;9.148;2023-04-27T21:36:24;98010.00;;;10.75;93.01
28312;BME280;15572;48.810;9.148;2023-04-27T21:41:20;98011.25;;;10.72;93.95
28312;BME280;15572;48.810;9.148;2023-04-27T21:46:18;97999.56;;;10.65;95.05
28312;BME280;15572;48.810;9.148;2023-04-27T21:51:15;97994.09;;;10.59;97.77
28312;BME280;15572;48.810;9.148;2023-04-27T21:56:12;97996.81;;;10.52;97.24
28312;BME280;15572;48.810;9.148;2023-04-27T22:01:08;97993.41;;;10.43;97.31
28312;BME280;15572;48.810;9.148;2023-04-27T22:06:08;97987.75;;;10.38;97.09
28312;BME280;15572;48.810;9.148;2023-04-27T22:11:04;98000.41;;;10.31;98.67
28312;BME280;15572;48.810;9.148;2023-04-27T22:16:02;97984.16;;;10.25;98.60
28312;BME280;15572;48.810;9.148;2023-04-27T22:20:58;97981.41;;;10.18;98.82
28312;BME280;15572;48.810;9.148;2023-04-27T22:25:56;97993.19;;;10.10;99.88
28312;BME280;15572;48.810;9.148;2023-04-27T22:30:53;97991.44;;;9.96;100.00
28312;BME280;15572;48.810;9.148;2023-04-27T22:35:50;97988.47;;;9.91;100.00
28312;BME280;15572;48.810;9.148;2023-04-27T22:40:47;97989.69;;;9.89;100.00
28312;BME280;15572;48.810;9.148;2023-04-27T22:45:44;97989.28;;;9.85;100.00
28312;BME280;15572;48.810;9.148;2023-04-27T22:50:41;97982.84;;;9.86;100.00
28312;BME280;15572;48.810;9.148;2023-04-27T22:55:37;97984.50;;;9.87;100.00
28312;BME280;15572;48.810;9.148;2023-04-27T23:00:34;97982.78;;;9.80;100.00
28312;BME280;15572;48.810;9.148;2023-04-27T23:05:32;97977.38;;;9.80;100.00
28312;BME280;15572;48.810;9.148;2023-04-27T23:10:29;97988.19;;;9.80;100.00
28312;BME280;15572;48.810;9.148;2023-04-27T23:15:26;97982.13;;;9.78;100.00
28312;BME280;15572;48.810;9.148;2023-04-27T23:20:22;97987.16;;;9.81;100.00
28312;BME280;15572;48.810;9.148;2023-04-27T23:25:20;97977.44;;;9.86;100.00
28312;BME280;15572;48.810;9.148;2023-04-27T23:30:17;97971.44;;;9.91;100.00
28312;BME280;15572;48.810;9.148;2023-04-27T23:35:13;97966.69;;;9.99;100.00
28312;BME280;15572;48.810;9.148;2023-04-27T23:40:10;97966.53;;;10.07;100.00
28312;BME280;15572;48.810;9.148;2023-04-27T23:45:09;97950.56;;;10.12;100.00
28312;BME280;15572;48.810;9.148;2023-04-27T23:50:06;97937.94;;;10.20;100.00
28312;BME280;15572;48.810;9.148;2023-04-27T23:55:03;97930.47;;;10.28;100.00
